This is the latest recevied weather packets stored in our database for station/object HB9FHL-13. If no packets are shown the sender has not sent any weather packets the latest 10 day(s).
| Time | Temp. | Humidity | Pressure | Rain* | Wind** | Luminosity | Snow |
|---|---|---|---|---|---|---|---|
| 1778188503 | 11.11° C | - | 1015.3 hPa | 0 mm | - | - | - |
| 1778188202 | 10.56° C | - | 1014.3 hPa | 0 mm | - | - | - |
| 1778187902 | 11.11° C | - | 1014.4 hPa | 0 mm | - | - | - |
| 1778187601 | 11.11° C | - | 1009.5 hPa | 0 mm | - | - | - |
| 1778187298 | 11.67° C | - | 1011 hPa | 0 mm | - | - | - |
| 1778186998 | 11.11° C | - | 1016.7 hPa | 0 mm | - | - | - |
| 1778186697 | 11.67° C | - | 1015.4 hPa | 0 mm | - | - | - |
| 1778186397 | 11.67° C | - | 1015.5 hPa | 0 mm | - | - | - |
| 1778186152 | 11.67° C | - | 1017.3 hPa | 0 mm | - | - | - |
| 1778186096 | 11.67° C | - | 1017.3 hPa | 0 mm | - | - | - |
| 1778185795 | 11.67° C | - | 1015.9 hPa | 0 mm | - | - | - |
| 1778185494 | 12.22° C | - | 1014 hPa | 0 mm | - | - | - |
| 1778185194 | 11.67° C | - | 1013 hPa | 0 mm | - | - | - |
| 1778184893 | 11.67° C | - | 1013.3 hPa | 0 mm | - | - | - |
| 1778184592 | 11.11° C | - | 1013.8 hPa | 0 mm | - | - | - |
| 1778184292 | 12.22° C | - | 1014.9 hPa | 0 mm | - | - | - |
| 1778183988 | 12.22° C | - | 1015 hPa | 0 mm | - | - | - |
| 1778183688 | 12.22° C | - | 1018.9 hPa | 0 mm | - | - | - |
| 1778183387 | 12.22° C | - | 1016.7 hPa | 0 mm | - | - | - |
| 1778183086 | 12.78° C | - | 1011.7 hPa | 0 mm | - | - | - |
| 1778182786 | 11.67° C | - | 1018.3 hPa | 0 mm | - | - | - |
| 1778182486 | 12.78° C | - | 1013.3 hPa | 0 mm | - | - | - |
| 1778182184 | 12.22° C | - | 1014.3 hPa | 0 mm | - | - | - |
| 1778181884 | 12.22° C | - | 1014.4 hPa | 0 mm | - | - | - |
| 1778181584 | 12.22° C | - | 1011.5 hPa | 0 mm | - | - | - |
* Rain since midnight (hover to see other rain measurements)
** Current wind speed in m/s (hover to see current wind gust speed)